KMNN

Marion Municipal Airport

Marion, Ohio, USA
METAR KMNN 212253Z AUTO 28006KT 10SM CLR 24/19 A2981 RMK AO2 SLP089 T02440194
Observed Flight Rules
Aug-21 @ 22:53 UTC (52 minutes ago) Visual Flight Rules
Wind Visibility Clouds
280° at 6 knots 10 miles
  • Clear skies
Temperatures Readings
Current 24°C / 75°F
Dewpoint 19°C / 66°F
Humidity 74%
Altimeter 29.81" Hg
Pressure 1008.9 hPa
Elevation 301
METAR KMNN 212253Z AUTO 28006KT 10SM CLR 24/19 A2981 RMK AO2 SLP089 T02440194
Observed Flight Rules
Aug-21 @ 22:53 UTC
(52 minutes ago)
VFR
Wind Visibility
280° at 6 knots 10 miles
Clouds
  • Clear skies
Temperature Dewpoint
24°C / 75°F 19°C / 66°F
Humidity Altimeter Pressure
74% 29.81" Hg 1008.9 hPa